createdAt,value
2018-09-18T00:01:36.812Z,76.30
2018-09-18T00:04:05.348Z,76.40
2018-09-18T00:06:33.948Z,76.50
2018-09-18T00:09:02.397Z,76.50
2018-09-18T00:11:30.897Z,77.10
2018-09-18T00:13:59.341Z,76.70
2018-09-18T00:16:27.833Z,76.90
2018-09-18T00:18:56.282Z,77.10
2018-09-18T00:21:25.033Z,77.30
2018-09-18T00:23:53.615Z,77.30
2018-09-18T00:26:22.065Z,78.10
2018-09-18T00:28:50.524Z,77.70
2018-09-18T00:31:19.008Z,77.40
2018-09-18T00:33:47.609Z,77.70
2018-09-18T00:36:16.064Z,77.70
2018-09-18T00:38:44.531Z,77.50
2018-09-18T00:41:13.000Z,77.30
2018-09-18T00:43:41.594Z,77.10
2018-09-18T00:46:10.037Z,77.10
2018-09-18T00:48:38.541Z,76.70
2018-09-18T00:51:06.964Z,76.80
2018-09-18T00:53:35.396Z,77.10
2018-09-18T00:56:03.931Z,77.00
2018-09-18T00:58:32.445Z,77.00
2018-09-18T01:01:01.062Z,76.80
2018-09-18T01:03:29.639Z,76.40
2018-09-18T01:05:58.393Z,75.40
2018-09-18T01:08:26.857Z,74.60
2018-09-18T01:10:55.424Z,73.90
2018-09-18T01:13:23.905Z,73.50
2018-09-18T01:15:52.536Z,73.10
2018-09-18T01:18:21.058Z,73.10
2018-09-18T01:20:49.561Z,72.70
2018-09-18T01:23:18.141Z,72.90
2018-09-18T01:25:46.561Z,73.70
2018-09-18T01:28:15.130Z,72.60
2018-09-18T01:30:43.579Z,72.70
2018-09-18T01:33:12.125Z,72.70
2018-09-18T01:35:40.627Z,72.30
2018-09-18T01:38:09.065Z,72.30
2018-09-18T01:40:37.657Z,72.90
2018-09-18T01:43:06.120Z,72.90
2018-09-18T01:45:34.564Z,72.60
2018-09-18T01:48:03.041Z,72.80
2018-09-18T01:50:31.602Z,72.30
2018-09-18T01:53:00.561Z,72.60
2018-09-18T01:55:28.933Z,72.70
2018-09-18T01:57:57.425Z,73.40
2018-09-18T02:00:25.934Z,73.20
2018-09-18T02:02:54.381Z,73.10
2018-09-18T02:05:22.824Z,72.80
2018-09-18T02:07:51.333Z,72.80
2018-09-18T02:10:19.684Z,73.00
2018-09-18T02:12:48.264Z,72.80
2018-09-18T02:15:16.705Z,72.50
2018-09-18T02:17:45.342Z,72.60
2018-09-18T02:20:13.865Z,72.30
2018-09-18T02:22:42.358Z,72.00
2018-09-18T02:25:10.790Z,72.10
2018-09-18T02:27:39.236Z,72.10
2018-09-18T02:30:07.768Z,71.70
2018-09-18T02:32:36.295Z,71.40
2018-09-18T02:35:04.858Z,71.40
2018-09-18T02:37:33.332Z,71.60
2018-09-18T02:40:01.844Z,72.00
2018-09-18T02:42:30.740Z,71.90
2018-09-18T02:44:59.272Z,71.70
2018-09-18T02:47:27.769Z,71.50
2018-09-18T02:49:56.133Z,71.70
2018-09-18T02:52:24.589Z,71.70
2018-09-18T02:54:53.036Z,71.00
2018-09-18T02:57:21.524Z,71.60
2018-09-18T02:59:50.050Z,71.80
2018-09-18T03:02:18.536Z,72.50
2018-09-18T03:04:47.356Z,71.70
2018-09-18T03:07:15.817Z,71.50
2018-09-18T03:09:44.288Z,71.50
2018-09-18T03:12:12.798Z,71.80
2018-09-18T03:14:41.317Z,71.60
2018-09-18T03:17:09.766Z,71.90
2018-09-18T03:19:38.288Z,72.00
2018-09-18T03:22:06.784Z,71.80
2018-09-18T03:24:35.283Z,71.80
2018-09-18T03:27:04.766Z,71.80
2018-09-18T03:29:33.257Z,71.70
2018-09-18T03:32:01.709Z,72.10
2018-09-18T03:34:30.216Z,72.20
2018-09-18T03:36:58.712Z,72.60
2018-09-18T03:39:27.177Z,71.90
2018-09-18T03:41:55.646Z,72.20
2018-09-18T03:44:24.071Z,72.20
2018-09-18T03:46:52.437Z,72.40
2018-09-18T03:49:20.948Z,72.20
2018-09-18T03:51:49.441Z,72.40
2018-09-18T03:54:18.045Z,72.30
2018-09-18T03:56:46.516Z,72.50
2018-09-18T03:59:15.025Z,71.80
2018-09-18T04:01:44.357Z,72.10
2018-09-18T04:04:12.895Z,71.90
2018-09-18T04:06:41.368Z,71.90
2018-09-18T04:09:11.232Z,72.20
2018-09-18T04:11:39.990Z,72.40
2018-09-18T04:14:08.471Z,71.70
2018-09-18T04:16:37.120Z,71.80
2018-09-18T04:19:05.710Z,72.20
2018-09-18T04:21:40.519Z,71.80
2018-09-18T04:24:09.012Z,71.90
2018-09-18T04:26:38.629Z,71.90
2018-09-18T04:29:07.816Z,72.00
2018-09-18T04:31:37.014Z,72.00
2018-09-18T04:34:05.530Z,72.00
2018-09-18T04:36:34.049Z,72.20
2018-09-18T04:39:02.685Z,72.00
2018-09-18T04:41:31.341Z,72.60
2018-09-18T04:43:59.892Z,72.10
2018-09-18T04:46:28.308Z,72.10
2018-09-18T04:48:56.753Z,72.90
2018-09-18T04:51:25.241Z,72.00
2018-09-18T04:53:53.738Z,72.20
2018-09-18T04:56:22.131Z,72.10
2018-09-18T04:58:50.620Z,72.40
2018-09-18T05:01:19.106Z,72.50
2018-09-18T05:03:47.534Z,72.20
2018-09-18T05:06:17.160Z,72.20
2018-09-18T05:08:45.611Z,72.50
2018-09-18T05:11:14.113Z,72.30
2018-09-18T05:13:42.624Z,72.30
2018-09-18T05:16:11.145Z,72.30
2018-09-18T05:18:39.884Z,72.40
2018-09-18T05:21:08.442Z,72.30
2018-09-18T05:23:36.927Z,72.30
2018-09-18T05:26:05.398Z,72.40
2018-09-18T05:28:34.089Z,73.00
2018-09-18T05:31:02.612Z,72.30
2018-09-18T05:33:31.104Z,72.50
2018-09-18T05:35:59.553Z,72.70
2018-09-18T05:38:28.108Z,72.00
2018-09-18T05:40:56.545Z,72.10
2018-09-18T05:43:25.112Z,72.00
2018-09-18T05:45:53.656Z,72.30
2018-09-18T05:48:22.165Z,72.30
2018-09-18T05:50:50.668Z,72.20
2018-09-18T05:53:19.089Z,71.90
2018-09-18T05:55:47.552Z,72.20
2018-09-18T05:58:16.033Z,72.10
2018-09-18T06:00:44.561Z,72.00
2018-09-18T06:03:12.967Z,72.30
2018-09-18T06:05:41.434Z,72.40
2018-09-18T06:08:09.926Z,72.10
2018-09-18T06:10:38.737Z,72.30
2018-09-18T06:13:07.500Z,72.20
2018-09-18T06:15:36.179Z,72.10
2018-09-18T06:18:04.648Z,72.20
2018-09-18T06:20:33.041Z,72.00
2018-09-18T06:23:01.569Z,72.30
2018-09-18T06:25:29.926Z,71.50
2018-09-18T06:27:58.465Z,72.00
2018-09-18T06:30:27.040Z,71.90
2018-09-18T06:32:55.565Z,71.60
2018-09-18T06:35:24.076Z,71.40
2018-09-18T06:37:52.640Z,71.60
2018-09-18T06:40:21.197Z,71.60
2018-09-18T06:42:49.649Z,71.80
2018-09-18T06:45:18.201Z,71.70
2018-09-18T06:47:46.664Z,71.50
2018-09-18T06:50:15.131Z,71.30
2018-09-18T06:52:43.520Z,71.70
2018-09-18T06:55:12.033Z,71.30
2018-09-18T06:57:40.463Z,71.80
2018-09-18T07:00:08.908Z,71.70
2018-09-18T07:02:37.449Z,71.30
2018-09-18T07:05:06.042Z,71.20
2018-09-18T07:07:34.533Z,70.70
2018-09-18T07:10:03.039Z,69.60
2018-09-18T07:12:31.596Z,70.30
2018-09-18T07:15:00.001Z,69.80
2018-09-18T07:17:28.475Z,69.80
2018-09-18T07:19:56.949Z,69.60
2018-09-18T07:22:25.528Z,69.50
2018-09-18T07:24:54.102Z,70.40
2018-09-18T07:27:23.232Z,69.70
2018-09-18T07:29:51.718Z,68.60
2018-09-18T07:32:20.238Z,69.20
2018-09-18T07:34:49.308Z,69.20
2018-09-18T07:37:17.832Z,69.40
2018-09-18T07:39:46.377Z,69.20
2018-09-18T07:42:14.979Z,69.40
2018-09-18T07:44:43.469Z,68.80
2018-09-18T07:47:11.951Z,68.20
2018-09-18T07:49:40.431Z,68.80
2018-09-18T07:52:08.990Z,68.50
2018-09-18T07:54:37.514Z,69.90
2018-09-18T07:57:06.065Z,68.90
2018-09-18T07:59:34.500Z,68.70
2018-09-18T08:02:02.984Z,68.70
2018-09-18T08:04:31.419Z,68.40
2018-09-18T08:07:00.014Z,68.40
2018-09-18T08:09:28.514Z,68.60
2018-09-18T08:11:57.105Z,67.70
2018-09-18T08:14:25.508Z,68.20
2018-09-18T08:16:54.038Z,67.10
2018-09-18T08:19:22.555Z,68.20
2018-09-18T08:21:51.062Z,67.90
2018-09-18T08:24:19.532Z,68.90
2018-09-18T08:26:48.065Z,68.90
2018-09-18T08:29:16.568Z,68.30
2018-09-18T08:31:45.080Z,68.00
2018-09-18T08:34:13.981Z,69.10
2018-09-18T08:36:42.425Z,67.80
2018-09-18T08:39:10.937Z,68.40
2018-09-18T08:41:39.484Z,67.70
2018-09-18T08:44:08.021Z,68.00
2018-09-18T08:46:36.586Z,66.50
2018-09-18T08:49:05.130Z,65.70
2018-09-18T08:51:33.774Z,65.60
2018-09-18T08:54:02.179Z,64.70
2018-09-18T08:56:30.711Z,62.90
2018-09-18T08:58:59.122Z,63.50
2018-09-18T09:01:28.526Z,62.80
2018-09-18T09:03:57.074Z,62.20
2018-09-18T09:06:25.679Z,62.90
2018-09-18T09:08:54.227Z,61.70
2018-09-18T09:11:22.743Z,61.50
2018-09-18T09:13:51.328Z,61.60
2018-09-18T09:16:19.820Z,61.00
2018-09-18T09:18:48.295Z,61.00
2018-09-18T09:21:16.873Z,60.60
2018-09-18T09:23:45.241Z,60.30
2018-09-18T09:26:13.747Z,59.90
2018-09-18T09:28:42.193Z,59.60
2018-09-18T09:31:10.881Z,59.90
2018-09-18T09:33:39.432Z,58.80
2018-09-18T09:36:08.055Z,60.00
2018-09-18T09:38:36.578Z,58.90
2018-09-18T09:41:05.400Z,58.30
2018-09-18T09:43:34.001Z,57.00
2018-09-18T09:46:02.474Z,57.70
2018-09-18T09:48:34.881Z,56.10
2018-09-18T09:51:04.530Z,57.30
2018-09-18T09:53:34.282Z,55.80
2018-09-18T09:56:02.718Z,54.60
2018-09-18T09:58:31.248Z,55.20
2018-09-18T10:01:05.101Z,55.90
2018-09-18T10:03:33.671Z,54.50
2018-09-18T10:06:02.201Z,53.70
2018-09-18T10:08:30.646Z,53.50
2018-09-18T10:10:59.307Z,52.10
2018-09-18T10:13:27.616Z,52.40
2018-09-18T10:15:56.148Z,52.50
2018-09-18T10:18:24.650Z,52.20
2018-09-18T10:20:53.536Z,52.60
2018-09-18T10:23:21.987Z,52.30
2018-09-18T10:25:50.833Z,51.30
2018-09-18T10:28:19.606Z,50.10
2018-09-18T10:30:48.151Z,49.80
2018-09-18T10:33:16.719Z,49.00
2018-09-18T10:35:45.112Z,48.10
2018-09-18T10:38:13.924Z,48.00
2018-09-18T10:40:42.510Z,48.10
2018-09-18T10:43:10.968Z,47.30
2018-09-18T10:45:39.495Z,47.50
2018-09-18T10:48:08.360Z,46.90
2018-09-18T10:50:36.760Z,46.30
2018-09-18T10:53:05.290Z,47.00
2018-09-18T10:55:33.948Z,46.70
2018-09-18T10:58:02.438Z,45.20
2018-09-18T11:00:30.921Z,44.70
2018-09-18T11:02:59.497Z,45.20
2018-09-18T11:05:28.045Z,45.70
2018-09-18T11:07:56.601Z,44.00
2018-09-18T11:10:25.004Z,44.40
2018-09-18T11:12:53.402Z,45.20
2018-09-18T11:15:22.044Z,44.20
2018-09-18T11:17:50.519Z,43.60
2018-09-18T11:20:19.000Z,42.50
2018-09-18T11:22:47.394Z,43.30
2018-09-18T11:25:15.813Z,42.60
2018-09-18T11:27:44.346Z,42.30
2018-09-18T11:30:12.826Z,41.90
2018-09-18T11:32:41.402Z,42.20
2018-09-18T11:35:09.794Z,42.00
2018-09-18T11:37:38.332Z,42.10
2018-09-18T11:40:06.840Z,41.60
2018-09-18T11:42:35.392Z,40.90
2018-09-18T11:45:04.061Z,41.80
2018-09-18T11:47:32.698Z,41.20
2018-09-18T11:50:01.240Z,41.00
2018-09-18T11:52:29.775Z,41.50
2018-09-18T11:54:58.175Z,41.50
2018-09-18T11:57:26.697Z,41.10
2018-09-18T11:59:55.157Z,40.90
2018-09-18T12:02:23.554Z,41.90
2018-09-18T12:04:52.088Z,42.20
2018-09-18T12:07:20.578Z,42.40
2018-09-18T12:09:48.975Z,43.10
2018-09-18T12:12:17.386Z,42.30
2018-09-18T12:14:45.779Z,42.60
2018-09-18T12:17:14.302Z,42.70
2018-09-18T12:19:42.788Z,43.50
2018-09-18T12:22:11.395Z,44.20
2018-09-18T12:24:39.786Z,43.70
2018-09-18T12:27:08.289Z,43.70
2018-09-18T12:29:36.755Z,44.30
2018-09-18T12:32:05.249Z,44.70
2018-09-18T12:34:33.764Z,44.80
2018-09-18T12:37:02.192Z,44.20
2018-09-18T12:39:31.469Z,44.00
2018-09-18T12:42:00.036Z,43.70
2018-09-18T12:44:28.408Z,43.40
2018-09-18T12:46:56.942Z,43.60
2018-09-18T12:49:25.509Z,43.60
2018-09-18T12:51:53.817Z,43.30
2018-09-18T12:54:22.224Z,43.90
2018-09-18T12:56:50.736Z,42.90
2018-09-18T12:59:19.288Z,43.00
2018-09-18T13:01:47.787Z,43.30
2018-09-18T13:04:16.193Z,43.20
2018-09-18T13:06:44.723Z,43.10
2018-09-18T13:09:14.048Z,42.70
2018-09-18T13:11:42.473Z,43.10
2018-09-18T13:14:10.969Z,43.70
2018-09-18T13:16:39.561Z,43.50
2018-09-18T13:19:08.037Z,41.60
2018-09-18T13:21:36.874Z,41.10
2018-09-18T13:24:06.042Z,42.50
2018-09-18T13:26:35.448Z,43.40
2018-09-18T13:29:04.676Z,41.50
2018-09-18T13:31:33.165Z,41.50
2018-09-18T13:34:04.344Z,40.50
2018-09-18T13:36:32.965Z,40.90
2018-09-18T13:39:01.705Z,41.60
2018-09-18T13:41:30.212Z,40.20
2018-09-18T13:43:59.917Z,40.20
2018-09-18T13:46:28.632Z,40.80
2018-09-18T13:48:57.001Z,41.00
2018-09-18T13:51:27.431Z,40.00
2018-09-18T13:53:55.947Z,40.20
2018-09-18T13:56:24.580Z,40.00
2018-09-18T13:58:52.850Z,41.10
2018-09-18T14:01:21.416Z,40.70
2018-09-18T14:03:49.965Z,41.00
2018-09-18T14:06:18.613Z,42.70
2018-09-18T14:08:52.316Z,42.40
2018-09-18T14:11:20.826Z,41.50
2018-09-18T14:13:49.580Z,41.30
2018-09-18T14:16:18.340Z,41.40
2018-09-18T14:18:46.885Z,40.90
2018-09-18T14:21:16.544Z,40.70
2018-09-18T14:23:45.124Z,41.50
2018-09-18T14:26:13.651Z,40.00
2018-09-18T14:31:25.637Z,38.50
2018-09-18T14:33:54.526Z,38.20
2018-09-18T14:36:22.980Z,40.30
2018-09-18T14:38:51.513Z,40.10
2018-09-18T14:41:19.938Z,40.60
2018-09-18T14:43:49.001Z,40.60
2018-09-18T14:46:17.904Z,40.20
2018-09-18T14:48:46.394Z,40.70
2018-09-18T14:51:16.017Z,40.30
2018-09-18T14:53:45.469Z,40.40
2018-09-18T14:56:13.971Z,40.30
2018-09-18T14:58:42.557Z,41.90
2018-09-18T15:01:11.160Z,41.70
2018-09-18T15:03:39.648Z,41.10
2018-09-18T15:06:08.225Z,40.80
2018-09-18T15:08:36.764Z,41.00
2018-09-18T15:11:05.167Z,42.10
2018-09-18T15:13:33.719Z,41.30
2018-09-18T15:16:02.293Z,42.50
2018-09-18T15:18:30.837Z,40.80
2018-09-18T15:20:59.316Z,41.30
2018-09-18T15:23:27.818Z,40.90
2018-09-18T15:25:56.296Z,40.60
2018-09-18T15:28:24.799Z,41.90
2018-09-18T15:30:54.089Z,42.20
2018-09-18T15:33:22.651Z,42.50
2018-09-18T15:35:51.858Z,43.00
2018-09-18T15:38:21.380Z,43.30
2018-09-18T15:40:49.936Z,43.80
2018-09-18T15:43:18.469Z,43.30
2018-09-18T15:45:47.121Z,43.90
2018-09-18T15:48:19.135Z,43.20
2018-09-18T15:50:47.663Z,43.00
2018-09-18T15:53:16.293Z,42.80
2018-09-18T15:55:44.737Z,43.10
2018-09-18T15:58:13.181Z,42.90
2018-09-18T16:00:42.043Z,42.80
2018-09-18T16:03:10.425Z,41.20
2018-09-18T16:05:38.868Z,42.50
2018-09-18T16:08:07.257Z,41.40
2018-09-18T16:10:35.745Z,42.00
2018-09-18T16:13:04.237Z,42.80
2018-09-18T16:18:01.203Z,41.80
2018-09-18T16:20:29.716Z,43.10
2018-09-18T16:22:58.226Z,41.30
2018-09-18T16:25:26.650Z,41.60
2018-09-18T16:27:55.267Z,41.80
2018-09-18T16:30:23.780Z,42.20
2018-09-18T16:32:52.321Z,42.40
2018-09-18T16:35:20.734Z,42.70
2018-09-18T16:37:49.261Z,44.20
2018-09-18T16:40:17.771Z,43.50
2018-09-18T16:42:46.147Z,43.30
2018-09-18T16:45:14.657Z,43.80
2018-09-18T16:47:43.359Z,43.80
2018-09-18T16:50:11.878Z,43.90
2018-09-18T16:52:40.538Z,43.60
2018-09-18T16:55:09.064Z,44.80
2018-09-18T16:57:37.418Z,44.30
2018-09-18T17:00:05.909Z,44.20
2018-09-18T17:02:34.351Z,45.40
2018-09-18T17:05:02.858Z,45.50
2018-09-18T17:07:31.338Z,45.10
2018-09-18T17:09:59.922Z,45.50
2018-09-18T17:12:28.420Z,45.80
2018-09-18T17:14:56.840Z,45.90
2018-09-18T17:17:25.308Z,46.20
2018-09-18T17:19:53.852Z,46.80
2018-09-18T17:22:22.334Z,46.80
2018-09-18T17:24:50.813Z,46.80
2018-09-18T17:27:19.268Z,47.10
2018-09-18T17:29:47.883Z,46.70
2018-09-18T17:32:16.288Z,47.10
2018-09-18T17:34:44.743Z,46.80
2018-09-18T17:37:13.334Z,47.40
2018-09-18T17:39:41.923Z,48.10
2018-09-18T17:42:10.466Z,49.60
2018-09-18T17:44:38.880Z,51.60
2018-09-18T17:47:07.514Z,53.00
2018-09-18T17:49:36.162Z,54.10
2018-09-18T17:52:04.679Z,55.00
2018-09-18T17:54:33.554Z,56.50
2018-09-18T17:57:05.427Z,56.00
2018-09-18T17:59:36.075Z,56.40
2018-09-18T18:02:04.733Z,57.10
2018-09-18T18:04:33.169Z,57.50
2018-09-18T18:07:01.673Z,57.90
2018-09-18T18:09:30.583Z,58.00
2018-09-18T18:12:00.602Z,58.80
2018-09-18T18:14:29.146Z,59.40
2018-09-18T18:16:57.689Z,59.80
2018-09-18T18:19:26.179Z,59.80
2018-09-18T18:21:58.540Z,60.10
2018-09-18T18:24:27.281Z,60.60
2018-09-18T18:27:01.170Z,60.70
2018-09-18T18:29:30.683Z,60.80
2018-09-18T18:31:59.331Z,60.80
2018-09-18T18:34:27.826Z,60.80
2018-09-18T18:36:56.328Z,61.10
2018-09-18T18:39:27.048Z,61.20
2018-09-18T18:41:55.692Z,61.20
2018-09-18T18:44:24.079Z,61.30
2018-09-18T18:46:52.581Z,61.40
2018-09-18T18:49:20.932Z,61.30
2018-09-18T18:51:49.481Z,61.20
2018-09-18T18:54:18.003Z,61.30
2018-09-18T18:56:46.485Z,61.70
2018-09-18T18:59:15.002Z,62.00
2018-09-18T19:01:43.465Z,62.40
2018-09-18T19:04:12.005Z,62.50
2018-09-18T19:06:40.844Z,62.50
2018-09-18T19:09:09.218Z,63.00
2018-09-18T19:11:41.129Z,63.10
2018-09-18T19:14:09.662Z,63.20
2018-09-18T19:16:38.226Z,63.60
2018-09-18T19:19:06.932Z,64.00
2018-09-18T19:21:35.453Z,64.30
2018-09-18T19:24:04.047Z,64.80
2018-09-18T19:26:32.473Z,65.30
2018-09-18T19:29:00.912Z,65.50
2018-09-18T19:31:33.428Z,65.60
2018-09-18T19:34:01.970Z,65.90
2018-09-18T19:36:30.489Z,66.10
2018-09-18T19:38:59.179Z,66.50
2018-09-18T19:41:27.712Z,66.80
2018-09-18T19:43:56.689Z,67.10
2018-09-18T19:46:25.688Z,67.30
2018-09-18T19:48:54.427Z,68.10
2018-09-18T19:51:23.191Z,68.40
2018-09-18T19:53:51.761Z,68.80
2018-09-18T19:56:20.254Z,69.00
2018-09-18T19:58:48.753Z,69.20
2018-09-18T20:01:17.206Z,69.50
2018-09-18T20:03:45.829Z,69.60
2018-09-18T20:06:14.407Z,69.90
2018-09-18T20:08:43.090Z,70.10
2018-09-18T20:11:11.590Z,70.30
2018-09-18T20:13:40.902Z,70.80
2018-09-18T20:16:09.434Z,71.10
2018-09-18T20:18:37.873Z,71.30
2018-09-18T20:21:06.441Z,71.60
2018-09-18T20:23:35.043Z,71.80
2018-09-18T20:26:03.604Z,72.20
2018-09-18T20:28:32.125Z,72.50
2018-09-18T20:31:00.578Z,72.80
2018-09-18T20:33:29.111Z,73.00
2018-09-18T20:35:57.930Z,73.20
2018-09-18T20:38:26.429Z,73.20
2018-09-18T20:40:54.852Z,73.30
2018-09-18T20:43:23.410Z,73.40
2018-09-18T20:45:52.646Z,73.40
2018-09-18T20:48:21.204Z,73.50
2018-09-18T20:50:49.754Z,73.60
2018-09-18T20:53:18.103Z,73.60
2018-09-18T20:55:46.537Z,73.60
2018-09-18T20:58:15.063Z,73.60
2018-09-18T21:00:43.643Z,73.50
2018-09-18T21:03:12.205Z,73.40
2018-09-18T21:05:40.698Z,73.40
2018-09-18T21:08:09.276Z,73.40
2018-09-18T21:10:37.754Z,73.50
2018-09-18T21:13:06.275Z,73.60
2018-09-18T21:15:34.861Z,73.60
2018-09-18T21:18:03.456Z,73.80
2018-09-18T21:20:32.138Z,73.80
2018-09-18T21:23:00.591Z,73.80
2018-09-18T21:25:37.939Z,74.00
2018-09-18T21:28:06.478Z,74.10
2018-09-18T21:30:34.992Z,73.90
2018-09-18T21:33:03.453Z,74.60
2018-09-18T21:35:31.887Z,74.00
2018-09-18T21:38:00.404Z,74.00
2018-09-18T21:40:28.814Z,74.30
2018-09-18T21:42:57.346Z,74.40
2018-09-18T21:45:25.809Z,74.30
2018-09-18T21:47:54.397Z,74.40
2018-09-18T21:50:22.854Z,74.40
2018-09-18T21:52:51.393Z,74.70
2018-09-18T21:55:19.928Z,74.60
2018-09-18T21:57:48.355Z,74.60
2018-09-18T22:00:17.262Z,74.80
2018-09-18T22:02:45.682Z,74.90
2018-09-18T22:05:14.217Z,75.00
2018-09-18T22:07:42.660Z,75.10
2018-09-18T22:10:11.120Z,75.30
2018-09-18T22:12:39.603Z,75.30
2018-09-18T22:15:07.978Z,75.60
2018-09-18T22:17:36.372Z,75.70
2018-09-18T22:20:05.355Z,76.00
2018-09-18T22:22:33.867Z,76.10
2018-09-18T22:25:02.323Z,76.00
2018-09-18T22:27:30.783Z,76.10
2018-09-18T22:29:59.314Z,76.40
2018-09-18T22:32:27.792Z,76.40
2018-09-18T22:34:56.185Z,76.40
2018-09-18T22:37:24.635Z,76.40
2018-09-18T22:39:53.053Z,76.50
2018-09-18T22:42:21.597Z,76.80
2018-09-18T22:44:50.012Z,76.80
2018-09-18T22:47:18.582Z,76.90
2018-09-18T22:49:46.932Z,76.90
2018-09-18T22:52:15.376Z,77.00
2018-09-18T22:54:44.021Z,77.00
2018-09-18T22:57:12.599Z,76.90
2018-09-18T22:59:41.053Z,77.00
2018-09-18T23:02:09.480Z,77.10
2018-09-18T23:04:38.002Z,77.30
2018-09-18T23:07:06.550Z,77.30
2018-09-18T23:09:35.055Z,77.40
2018-09-18T23:12:03.494Z,77.50
2018-09-18T23:14:32.046Z,77.60
2018-09-18T23:17:00.469Z,77.70
2018-09-18T23:19:29.020Z,77.60
2018-09-18T23:21:57.534Z,78.30
2018-09-18T23:24:26.253Z,77.80
2018-09-18T23:26:54.736Z,77.80
2018-09-18T23:29:23.181Z,77.90
2018-09-18T23:31:51.757Z,78.10
2018-09-18T23:34:20.461Z,78.30
2018-09-18T23:36:48.868Z,78.20
2018-09-18T23:39:17.409Z,78.60
2018-09-18T23:41:45.956Z,78.50
2018-09-18T23:44:14.409Z,78.60
2018-09-18T23:46:43.038Z,78.70
2018-09-18T23:49:11.461Z,78.80
2018-09-18T23:51:39.952Z,78.80
2018-09-18T23:54:08.416Z,79.40
2018-09-18T23:56:36.873Z,79.30
2018-09-18T23:59:05.566Z,79.30
